Time;durP1;ratioP1;P1;durP2;ratioP2;P2;SDS_P1;SDS_P2;PMS_P1;PMS_P2;Temp;Humidity;BMP_temperature;BMP_pressure;BME280_temperature;BME280_humidity;BME280_pressure;Samples;Min_cycle;Max_cycle;Signal;HPM_P1;HPM_P2
2022/08/08 00:00:52;;;;;;;3.07;2.77;;;14.80;99.90;;;;;;5118637;28;20855;-52
2022/08/08 00:03:30;;;;;;;3.60;3.30;;;14.80;99.90;;;;;;5121206;28;20459;-50
2022/08/08 00:06:10;;;;;;;4.60;3.77;;;14.80;99.90;;;;;;5118977;28;20512;-50
2022/08/08 00:08:46;;;;;;;3.87;3.40;;;14.80;99.90;;;;;;5119091;28;20790;-50
2022/08/08 00:11:21;;;;;;;5.00;4.00;;;14.80;99.90;;;;;;5121039;28;20954;-47
2022/08/08 00:13:59;;;;;;;3.93;3.60;;;14.80;99.90;;;;;;5119509;28;20530;-48
2022/08/08 00:16:35;;;;;;;7.10;3.57;;;14.70;99.90;;;;;;5119519;28;20924;-54
2022/08/08 00:19:10;;;;;;;5.00;3.93;;;14.70;99.90;;;;;;5100657;28;20526;-51
2022/08/08 00:21:42;;;;;;;6.03;3.87;;;14.60;99.90;;;;;;5098332;28;20763;-47
2022/08/08 00:24:15;;;;;;;4.30;3.90;;;14.60;99.90;;;;;;5096764;28;20826;-47
2022/08/08 00:26:46;;;;;;;4.17;3.40;;;14.70;99.90;;;;;;5098806;28;20495;-52
2022/08/08 00:29:17;;;;;;;5.37;3.90;;;14.60;99.90;;;;;;5099099;28;20484;-53
2022/08/08 00:31:49;;;;;;;7.20;3.70;;;14.50;99.90;;;;;;5099178;28;20533;-50
2022/08/08 00:37:26;;;;;;;3.80;3.50;;;14.40;99.90;;;;;;5101613;28;20415;-48
2022/08/08 00:40:06;;;;;;;5.30;3.70;;;14.30;99.90;;;;;;5098942;28;20591;-52
2022/08/08 00:42:59;;;;;;;3.87;3.47;;;14.30;99.90;;;;;;5098644;28;20431;-54
2022/08/08 00:46:11;;;;;;;3.23;2.93;;;14.30;99.90;;;;;;5099493;28;20936;-47
2022/08/08 00:49:22;;;;;;;6.73;5.20;;;14.30;99.90;;;;;;5061731;28;20457;-55
2022/08/08 00:52:09;;;;;;;4.13;3.73;;;14.30;99.90;;;;;;5097126;28;20526;-53
2022/08/08 00:55:15;;;;;;;4.73;4.00;;;14.30;99.90;;;;;;5114246;28;20471;-47
2022/08/08 00:58:31;;;;;;;4.73;4.30;;;14.20;99.90;;;;;;5117534;28;20453;-49
2022/08/08 01:01:13;;;;;;;4.93;3.83;;;14.10;99.90;;;;;;5073813;28;20504;-50
2022/08/08 01:04:26;;;;;;;3.77;3.47;;;14.00;99.90;;;;;;5099559;28;20592;-53
2022/08/08 01:07:36;;;;;;;4.30;3.90;;;14.00;99.90;;;;;;5079101;28;20909;-47
2022/08/08 01:10:46;;;;;;;4.87;3.37;;;14.00;99.90;;;;;;5104623;28;20474;-50
2022/08/08 01:13:43;;;;;;;4.70;4.20;;;13.90;99.90;;;;;;4997329;28;20550;-54
2022/08/08 01:16:50;;;;;;;7.43;3.70;;;13.80;99.90;;;;;;5102355;28;20442;-48
2022/08/08 01:19:53;;;;;;;4.43;3.53;;;13.80;99.90;;;;;;5116572;28;20494;-48
2022/08/08 01:23:04;;;;;;;3.97;3.60;;;13.80;99.90;;;;;;5116949;28;20471;-55
2022/08/08 01:26:01;;;;;;;5.30;4.40;;;13.70;99.90;;;;;;5064488;28;20784;-50
2022/08/08 01:28:54;;;;;;;4.53;4.13;;;13.70;99.90;;;;;;5119350;28;20538;-53
2022/08/08 01:32:02;;;;;;;3.60;3.30;;;13.70;99.90;;;;;;5116732;28;20503;-52
2022/08/08 01:35:16;;;;;;;3.50;3.20;;;13.80;99.90;;;;;;5119372;28;20811;-50
2022/08/08 01:38:18;;;;;;;4.27;3.90;;;13.70;99.90;;;;;;5056219;28;20788;-46
2022/08/08 01:40:54;;;;;;;4.17;3.87;;;13.50;99.90;;;;;;5102049;28;20968;-50
2022/08/08 01:43:43;;;;;;;4.90;4.17;;;13.50;99.90;;;;;;5119296;28;20508;-52
2022/08/08 01:46:38;;;;;;;4.37;4.00;;;13.40;1.00;;;;;;5116487;28;20573;-51
2022/08/08 01:49:13;;;;;;;5.10;3.50;;;13.40;1.00;;;;;;5115265;28;20468;-49
2022/08/08 01:51:58;;;;;;;4.30;3.80;;;13.30;1.00;;;;;;5117014;28;20448;-49
2022/08/08 01:54:39;;;;;;;3.83;3.53;;;13.30;1.00;;;;;;5108418;28;20880;-49
2022/08/08 01:57:17;;;;;;;4.30;3.90;;;13.30;1.00;;;;;;5119040;28;20515;-50
2022/08/08 02:00:05;;;;;;;5.30;4.40;;;13.20;1.00;;;;;;5116506;28;20601;-53
2022/08/08 02:02:52;;;;;;;5.23;3.93;;;13.20;1.00;;;;;;5114221;28;20504;-54
2022/08/08 02:05:29;;;;;;;4.40;4.00;;;13.20;1.00;;;;;;5077791;28;20454;-47
2022/08/08 02:08:15;;;;;;;4.60;3.90;;;13.20;1.00;;;;;;5085494;28;20450;-50
2022/08/08 02:11:01;;;;;;;5.20;4.43;;;13.20;1.00;;;;;;5096200;28;20469;-52
2022/08/08 02:13:37;;;;;;;5.40;4.80;;;13.20;1.00;;;;;;5113510;28;20490;-47
2022/08/08 02:16:15;;;;;;;6.03;5.27;;;13.10;1.00;;;;;;5105325;28;20443;-50
2022/08/08 02:18:50;;;;;;;5.50;4.80;;;13.10;1.00;;;;;;5097539;28;20469;-50
2022/08/08 02:24:15;;;;;;;6.40;4.83;;;13.10;1.00;;;;;;5117817;28;20409;-52
2022/08/08 02:26:51;;;;;;;5.20;4.70;;;13.10;1.00;;;;;;5114841;28;20802;-47
2022/08/08 02:29:38;;;;;;;5.87;4.13;;;13.00;1.00;;;;;;5115722;28;20434;-48
2022/08/08 02:32:45;;;;;;;5.67;4.40;;;13.00;1.00;;;;;;5118291;28;20464;-50
2022/08/08 02:35:36;;;;;;;4.33;3.93;;;13.00;1.00;;;;;;5059724;28;20956;-52
2022/08/08 02:38:47;;;;;;;4.77;3.80;;;13.00;1.00;;;;;;5098707;28;20446;-56
2022/08/08 02:41:47;;;;;;;4.20;3.80;;;13.00;1.00;;;;;;5086818;28;20445;-51
2022/08/08 02:44:49;;;;;;;6.60;4.00;;;12.80;1.00;;;;;;5104930;28;20463;-48
2022/08/08 02:47:57;;;;;;;4.37;3.97;;;12.80;1.00;;;;;;5098769;28;20541;-51
2022/08/08 02:51:00;;;;;;;7.33;4.07;;;12.80;1.00;;;;;;5096559;28;20900;-48
2022/08/08 02:54:00;;;;;;;4.83;4.43;;;12.70;1.00;;;;;;5086237;28;20471;-47
2022/08/08 02:57:07;;;;;;;4.33;3.80;;;12.70;1.00;;;;;;5117761;28;20528;-50
2022/08/08 03:00:16;;;;;;;4.77;3.90;;;12.70;1.00;;;;;;5112319;28;20490;-52
2022/08/08 03:03:21;;;;;;;4.40;4.00;;;12.70;1.00;;;;;;5093472;28;20469;-49
2022/08/08 03:06:24;;;;;;;4.80;4.40;;;12.60;1.00;;;;;;5078231;28;20497;-49
2022/08/08 03:09:27;;;;;;;4.77;4.37;;;12.60;1.00;;;;;;5112989;28;20930;-53
2022/08/08 03:12:26;;;;;;;4.00;3.70;;;12.60;1.00;;;;;;5077098;28;20510;-51
2022/08/08 03:15:29;;;;;;;5.13;4.63;;;12.60;1.00;;;;;;5101908;28;20957;-55
2022/08/08 03:18:04;;;;;;;5.13;4.70;;;12.40;1.00;;;;;;5115156;28;20539;-48
2022/08/08 03:20:48;;;;;;;4.60;4.20;;;12.40;1.00;;;;;;5115156;28;20581;-47
2022/08/08 03:23:17;;;;;;;5.87;5.20;;;12.40;1.00;;;;;;5115153;28;20450;-51
2022/08/08 03:25:56;;;;;;;4.90;4.40;;;12.40;1.00;;;;;;5117426;28;20512;-56
2022/08/08 03:28:32;;;;;;;4.40;4.03;;;12.40;1.00;;;;;;5114924;28;20540;-47
2022/08/08 03:33:17;;;;;;;4.87;4.40;;;12.40;1.00;;;;;;5113044;28;20472;-53
2022/08/08 03:34:01;;;;;;;7.30;4.40;;;12.40;1.00;;;;;;5110975;28;20888;-52
2022/08/08 03:36:31;;;;;;;5.50;4.57;;;12.40;1.00;;;;;;5118982;27;20482;-54
2022/08/08 03:39:01;;;;;;;5.40;4.80;;;12.40;1.00;;;;;;5119243;28;20581;-52
2022/08/08 03:41:32;;;;;;;5.00;4.60;;;12.40;1.00;;;;;;5113192;27;20478;-47
2022/08/08 03:43:59;;;;;;;4.83;4.43;;;12.40;1.00;;;;;;5102379;28;20459;-52
2022/08/08 03:46:26;;;;;;;4.10;3.70;;;12.30;1.00;;;;;;5098886;28;20824;-48
2022/08/08 03:48:57;;;;;;;5.03;4.53;;;12.30;1.00;;;;;;5107211;28;20449;-51
2022/08/08 03:51:28;;;;;;;5.13;4.63;;;12.30;1.00;;;;;;5121619;28;20512;-47
2022/08/08 03:53:56;;;;;;;5.53;4.93;;;12.10;1.00;;;;;;5112039;28;20965;-50
2022/08/08 03:56:24;;;;;;;5.00;4.50;;;12.10;1.00;;;;;;5120698;28;20465;-50
2022/08/08 03:58:55;;;;;;;5.83;4.60;;;12.00;1.00;;;;;;5117623;28;20464;-53
2022/08/08 04:01:22;;;;;;;5.87;5.27;;;12.00;1.00;;;;;;5111099;28;20474;-51
2022/08/08 04:03:50;;;;;;;6.50;5.50;;;12.00;1.00;;;;;;5100366;28;20768;-54
2022/08/08 04:06:17;;;;;;;5.50;5.03;;;12.00;1.00;;;;;;5100861;28;20567;-47
2022/08/08 04:08:45;;;;;;;5.90;5.40;;;12.00;1.00;;;;;;5100701;28;20434;-50
2022/08/08 04:11:12;;;;;;;6.13;4.80;;;12.00;1.00;;;;;;5100817;28;20439;-55
2022/08/08 04:13:41;;;;;;;8.50;5.10;;;12.00;1.00;;;;;;5098654;28;20602;-56
2022/08/08 04:16:09;;;;;;;5.57;4.60;;;12.10;1.00;;;;;;5099780;28;20477;-49
2022/08/08 04:18:36;;;;;;;10.73;5.90;;;12.10;1.00;;;;;;5099488;28;20435;-51
2022/08/08 04:21:06;;;;;;;5.50;4.93;;;12.10;1.00;;;;;;5099480;28;20518;-50
2022/08/08 04:23:42;;;;;;;6.37;5.77;;;12.10;1.00;;;;;;5100445;28;20467;-50
2022/08/08 04:26:10;;;;;;;4.53;4.13;;;12.10;1.00;;;;;;5098109;28;20517;-55
2022/08/08 04:28:37;;;;;;;6.50;4.67;;;12.20;1.00;;;;;;5099077;28;20529;-51
2022/08/08 04:31:06;;;;;;;5.03;4.53;;;12.10;1.00;;;;;;5100457;28;20797;-52
2022/08/08 04:33:36;;;;;;;5.50;4.53;;;12.20;1.00;;;;;;5099402;28;20508;-51
2022/08/08 04:36:03;;;;;;;6.73;4.57;;;12.20;1.00;;;;;;5118795;27;20429;-55
2022/08/08 04:38:31;;;;;;;5.43;4.93;;;12.20;1.00;;;;;;5115812;28;20892;-53
2022/08/08 04:40:58;;;;;;;5.83;4.53;;;12.20;1.00;;;;;;5118039;28;20497;-53
2022/08/08 04:43:25;;;;;;;5.93;4.83;;;12.20;1.00;;;;;;5116281;28;20582;-53
2022/08/08 04:45:52;;;;;;;5.47;4.53;;;12.20;1.00;;;;;;5120061;28;20455;-54
2022/08/08 04:48:22;;;;;;;9.00;4.73;;;12.20;1.00;;;;;;5113191;28;20909;-56
2022/08/08 04:50:49;;;;;;;6.70;4.97;;;12.30;1.00;;;;;;5099661;28;20438;-53
2022/08/08 04:53:16;;;;;;;9.40;5.37;;;12.30;1.00;;;;;;5098213;28;20552;-53
2022/08/08 04:55:45;;;;;;;6.33;5.57;;;12.30;1.00;;;;;;5099464;28;20547;-51
2022/08/08 04:58:15;;;;;;;14.30;5.77;;;12.30;1.00;;;;;;5111314;28;20446;-56
2022/08/08 05:00:46;;;;;;;8.83;5.63;;;12.30;1.00;;;;;;5119981;28;20462;-53
2022/08/08 05:03:14;;;;;;;10.90;6.13;;;12.40;1.00;;;;;;5117319;28;20472;-48
2022/08/08 05:05:43;;;;;;;6.60;5.60;;;12.50;1.00;;;;;;5098256;28;20799;-52
2022/08/08 05:08:13;;;;;;;7.17;5.57;;;12.60;1.00;;;;;;5103819;28;20548;-52
2022/08/08 05:10:41;;;;;;;7.97;5.47;;;12.70;1.00;;;;;;5119460;28;20814;-53
2022/08/08 05:13:08;;;;;;;7.63;6.57;;;12.80;1.00;;;;;;5108414;28;20494;-53
2022/08/08 05:15:35;;;;;;;6.70;6.00;;;12.80;1.00;;;;;;5117327;28;20471;-52
2022/08/08 05:18:07;;;;;;;7.47;6.57;;;12.90;1.00;;;;;;5119478;28;20462;-53
2022/08/08 05:20:34;;;;;;;8.53;6.37;;;13.00;1.00;;;;;;5119867;27;20810;-48
2022/08/08 05:23:06;;;;;;;8.43;6.17;;;13.10;1.00;;;;;;5119817;28;20434;-48
2022/08/08 05:25:35;;;;;;;7.27;6.40;;;13.20;1.00;;;;;;5119479;28;20533;-54
2022/08/08 05:28:02;;;;;;;8.17;6.30;;;13.20;1.00;;;;;;5119557;28;20460;-47
2022/08/08 05:30:29;;;;;;;8.83;6.93;;;13.40;1.00;;;;;;5119335;28;20462;-51
2022/08/08 05:32:57;;;;;;;7.57;6.90;;;13.50;1.00;;;;;;5119188;28;20463;-47
2022/08/08 05:35:28;;;;;;;10.40;7.30;;;13.50;1.00;;;;;;5097860;28;20464;-47
2022/08/08 05:38:00;;;;;;;10.53;7.67;;;13.60;1.00;;;;;;5096808;28;20555;-50
2022/08/08 05:40:30;;;;;;;7.93;7.13;;;13.70;1.00;;;;;;5098700;28;20549;-52
2022/08/08 05:43:04;;;;;;;11.13;8.30;;;13.80;1.00;;;;;;5099131;28;20562;-56
2022/08/08 05:45:35;;;;;;;9.10;8.20;;;14.00;1.00;;;;;;5097353;28;20479;-51
2022/08/08 05:48:07;;;;;;;9.20;7.73;;;14.10;1.00;;;;;;5081842;28;20542;-55
2022/08/08 05:50:35;;;;;;;8.90;8.00;;;14.30;1.00;;;;;;5119255;28;20476;-56
2022/08/08 05:53:04;;;;;;;8.57;7.77;;;14.50;1.00;;;;;;5118541;28;20487;-53
2022/08/08 05:55:35;;;;;;;9.80;8.13;;;14.70;1.00;;;;;;5115964;28;20972;-52
2022/08/08 05:58:06;;;;;;;10.07;8.07;;;14.80;1.00;;;;;;5118879;28;20904;-57
2022/08/08 06:00:35;;;;;;;9.60;8.57;;;15.00;1.00;;;;;;5118682;27;20487;-54
2022/08/08 06:03:12;;;;;;;8.87;7.90;;;15.10;99.90;;;;;;5118995;27;20483;-57
2022/08/08 06:05:49;;;;;;;8.47;7.57;;;15.30;99.90;;;;;;5119091;28;20479;-53
2022/08/08 06:08:23;;;;;;;8.43;7.20;;;15.50;99.90;;;;;;5118835;28;20437;-57
2022/08/08 06:10:54;;;;;;;7.80;7.10;;;15.70;99.90;;;;;;5119078;28;20487;-57
2022/08/08 06:13:27;;;;;;;7.33;6.63;;;15.90;99.90;;;;;;5112559;28;20579;-55
2022/08/08 06:15:59;;;;;;;7.70;6.20;;;16.20;99.90;;;;;;5094819;28;20541;-57
2022/08/08 06:18:28;;;;;;;7.00;6.30;;;16.50;99.90;;;;;;5097529;28;20436;-57
2022/08/08 06:20:57;;;;;;;9.27;7.20;;;16.90;99.90;;;;;;5095628;28;20556;-55
2022/08/08 06:23:28;;;;;;;7.30;6.60;;;17.20;99.90;;;;;;5097373;28;20492;-58
2022/08/08 06:26:06;;;;;;;10.27;7.10;;;17.50;99.90;;;;;;5114138;28;20464;-57
2022/08/08 06:28:34;;;;;;;7.73;6.27;;;17.90;99.90;;;;;;5118434;27;20550;-54
2022/08/08 06:31:05;;;;;;;7.40;6.00;;;18.30;99.90;;;;;;5107550;28;20555;-57
2022/08/08 06:33:43;;;;;;;6.37;5.80;;;18.60;99.90;;;;;;5097883;28;20780;-56
2022/08/08 06:36:17;;;;;;;7.03;6.37;;;18.70;99.90;;;;;;5111030;28;20471;-54
2022/08/08 06:38:50;;;;;;;6.33;5.73;;;18.90;99.90;;;;;;5116613;28;20429;-58
2022/08/08 06:41:25;;;;;;;7.07;6.37;;;19.20;99.90;;;;;;5118129;28;20539;-57
2022/08/08 06:43:57;;;;;;;5.90;5.17;;;19.40;99.90;;;;;;5114661;28;20533;-55
2022/08/08 06:46:28;;;;;;;7.17;6.17;;;19.50;99.90;;;;;;5110799;28;20958;-58
2022/08/08 06:48:56;;;;;;;6.20;5.60;;;19.70;99.90;;;;;;5101171;28;20496;-58
2022/08/08 06:51:23;;;;;;;6.20;5.60;;;19.90;99.90;;;;;;5096277;28;20525;-58
2022/08/08 06:53:53;;;;;;;6.73;5.70;;;20.20;99.90;;;;;;5097079;28;20463;-58
2022/08/08 06:56:24;;;;;;;6.30;5.70;;;20.40;99.90;;;;;;5097755;28;20470;-58
2022/08/08 06:58:52;;;;;;;6.07;4.90;;;20.80;99.90;;;;;;5099103;28;20446;-56
2022/08/08 07:01:28;;;;;;;5.87;4.80;;;20.90;99.90;;;;;;5110562;28;20841;-58
2022/08/08 07:04:02;;;;;;;6.83;6.07;;;21.20;99.90;;;;;;5096598;28;20583;-57
2022/08/08 07:06:42;;;;;;;6.30;5.07;;;21.50;99.90;;;;;;5089715;28;20809;-57
2022/08/08 07:09:18;;;;;;;5.10;4.60;;;21.70;99.90;;;;;;5078975;28;20472;-58
2022/08/08 07:11:52;;;;;;;5.20;4.70;;;22.00;99.90;;;;;;5082988;28;20442;-58
2022/08/08 07:14:26;;;;;;;5.03;4.63;;;22.10;99.90;;;;;;5082079;28;20578;-59
2022/08/08 07:17:04;;;;;;;5.13;4.73;;;22.40;99.90;;;;;;5075351;28;20487;-57
2022/08/08 07:19:40;;;;;;;5.40;4.70;;;22.60;99.90;;;;;;5091223;28;20463;-58
2022/08/08 07:22:09;;;;;;;6.93;4.87;;;22.30;99.90;;;;;;5110734;28;20460;-58
2022/08/08 07:24:43;;;;;;;6.03;4.17;;;22.40;99.90;;;;;;5117736;28;20438;-59
2022/08/08 07:27:14;;;;;;;5.67;4.27;;;22.80;99.90;;;;;;5118139;28;20438;-59
2022/08/08 07:29:42;;;;;;;5.33;4.40;;;22.90;99.90;;;;;;5106994;28;20464;-58
2022/08/08 07:32:18;;;;;;;5.10;4.40;;;23.20;99.90;;;;;;5095665;28;20464;-58
2022/08/08 07:34:45;;;;;;;4.70;4.30;;;23.50;99.90;;;;;;5095730;28;20874;-59
2022/08/08 07:37:13;;;;;;;3.87;3.57;;;23.60;99.90;;;;;;5096781;28;20474;-59
2022/08/08 07:39:43;;;;;;;4.10;3.80;;;23.80;99.90;;;;;;5095186;28;20554;-58
2022/08/08 07:42:18;;;;;;;4.70;3.70;;;23.80;99.90;;;;;;5096913;28;20466;-59
2022/08/08 07:44:48;;;;;;;4.73;4.23;;;23.90;99.90;;;;;;5096865;28;20466;-59
2022/08/08 07:47:15;;;;;;;5.17;4.67;;;24.20;99.90;;;;;;5096188;28;20517;-59
2022/08/08 07:49:44;;;;;;;4.57;4.20;;;24.40;99.90;;;;;;5096150;28;20537;-58
2022/08/08 07:52:18;;;;;;;4.97;4.47;;;24.50;99.90;;;;;;5094521;28;20475;-58
2022/08/08 07:54:52;;;;;;;3.80;3.50;;;24.80;99.90;;;;;;5096813;28;20460;-58
2022/08/08 07:57:28;;;;;;;5.00;3.87;;;25.10;99.90;;;;;;5096588;28;20460;-59
2022/08/08 08:00:03;;;;;;;5.13;4.00;;;25.40;99.90;;;;;;5082211;28;20893;-58
2022/08/08 08:02:40;;;;;;;4.33;3.90;;;25.50;99.90;;;;;;5076390;28;20530;-59
2022/08/08 08:05:16;;;;;;;4.43;4.03;;;25.40;99.90;;;;;;5082581;28;20478;-59
2022/08/08 08:07:53;;;;;;;4.10;3.47;;;25.80;99.90;;;;;;5076595;28;20840;-59
2022/08/08 08:10:21;;;;;;;4.77;4.27;;;25.70;99.90;;;;;;5082424;28;20442;-59
2022/08/08 08:12:53;;;;;;;4.53;3.90;;;26.10;99.90;;;;;;5094631;28;20456;-59
2022/08/08 08:15:26;;;;;;;3.63;3.33;;;26.20;99.90;;;;;;5111732;28;20463;-60
2022/08/08 08:17:58;;;;;;;4.03;3.63;;;26.30;99.90;;;;;;5100181;28;20559;-58
2022/08/08 08:20:30;;;;;;;3.90;3.60;;;26.60;99.90;;;;;;5116891;28;20557;-59
2022/08/08 08:22:57;;;;;;;3.67;3.37;;;26.70;99.90;;;;;;5109576;28;20567;-59
2022/08/08 08:25:33;;;;;;;4.93;3.00;;;26.80;99.90;;;;;;5110579;27;20472;-60
2022/08/08 08:28:07;;;;;;;3.40;3.07;;;26.80;99.90;;;;;;5100138;28;20434;-60
2022/08/08 08:30:35;;;;;;;3.43;3.13;;;27.00;99.90;;;;;;5111463;28;20896;-60
2022/08/08 08:33:10;;;;;;;3.30;3.10;;;27.00;99.90;;;;;;5100798;28;20472;-59
2022/08/08 08:35:38;;;;;;;3.97;3.57;;;27.00;99.90;;;;;;5098769;28;20495;-59
2022/08/08 08:38:08;;;;;;;4.00;3.60;;;26.50;99.90;;;;;;5109943;28;20496;-59
2022/08/08 08:40:35;;;;;;;3.40;3.00;;;26.30;99.90;;;;;;5099192;28;20507;-60
2022/08/08 08:43:12;;;;;;;3.50;3.20;;;26.20;99.90;;;;;;5100872;28;20468;-59
2022/08/08 08:45:41;;;;;;;3.67;3.17;;;26.10;99.90;;;;;;5098161;28;20889;-59
2022/08/08 08:48:11;;;;;;;3.63;3.33;;;26.30;99.90;;;;;;5099749;28;20460;-60
2022/08/08 08:50:42;;;;;;;6.33;3.63;;;26.60;99.90;;;;;;5097302;28;20766;-59
2022/08/08 08:53:12;;;;;;;3.30;3.00;;;27.30;99.90;;;;;;5100616;28;20468;-59
2022/08/08 08:55:41;;;;;;;3.73;3.43;;;27.60;99.90;;;;;;5099999;28;20470;-60
2022/08/08 08:58:24;;;;;;;7.30;3.33;;;27.60;99.90;;;;;;5098766;28;20921;-58
2022/08/08 09:00:52;;;;;;;3.00;2.80;;;27.10;99.90;;;;;;5120079;28;20628;-60
2022/08/08 09:03:23;;;;;;;3.93;3.37;;;27.00;99.90;;;;;;5116969;28;20537;-59
2022/08/08 09:05:51;;;;;;;4.67;3.40;;;27.10;99.90;;;;;;5112275;28;20480;-60
2022/08/08 09:08:26;;;;;;;3.33;3.13;;;27.60;99.90;;;;;;5119370;28;20560;-60
2022/08/08 09:10:55;;;;;;;3.77;3.47;;;28.00;99.90;;;;;;5098490;28;20550;-57
2022/08/08 09:13:25;;;;;;;3.40;3.10;;;28.10;99.90;;;;;;5097082;28;20982;-59
2022/08/08 09:15:53;;;;;;;3.80;3.50;;;28.10;99.90;;;;;;5099170;28;20551;-58
2022/08/08 09:18:24;;;;;;;3.50;3.20;;;28.80;99.90;;;;;;5096876;28;20972;-60
2022/08/08 09:20:52;;;;;;;3.30;3.00;;;28.30;99.90;;;;;;5098469;28;20545;-60
2022/08/08 09:23:20;;;;;;;6.10;3.63;;;28.70;99.90;;;;;;5107624;28;20760;-60
2022/08/08 09:25:51;;;;;;;2.90;2.70;;;28.90;99.90;;;;;;5104866;28;20474;-59
2022/08/08 09:28:23;;;;;;;4.30;3.90;;;28.70;99.90;;;;;;5096994;28;20906;-60
2022/08/08 09:31:10;;;;;;;6.50;3.60;;;28.90;99.90;;;;;;5099137;28;20435;-58
2022/08/08 09:33:39;;;;;;;3.10;2.90;;;28.60;99.90;;;;;;5119877;28;20459;-60
2022/08/08 09:36:11;;;;;;;3.53;3.33;;;28.00;99.90;;;;;;5114305;28;20467;-59
2022/08/08 09:38:49;;;;;;;3.97;3.40;;;28.10;99.90;;;;;;5119435;28;20562;-58
2022/08/08 09:41:21;;;;;;;4.00;3.27;;;28.60;99.90;;;;;;5099215;28;20880;-60
2022/08/08 09:43:51;;;;;;;3.30;3.10;;;28.90;99.90;;;;;;5104378;28;20536;-60
2022/08/08 09:46:24;;;;;;;3.00;2.70;;;29.30;99.90;;;;;;5097110;28;20468;-60
2022/08/08 09:48:53;;;;;;;3.63;3.30;;;29.70;99.90;;;;;;5098409;28;20786;-60
2022/08/08 09:51:29;;;;;;;2.77;2.57;;;29.40;99.90;;;;;;5094711;28;20526;-60
2022/08/08 09:54:04;;;;;;;5.47;3.53;;;29.80;99.90;;;;;;5095083;28;20464;-59
2022/08/08 09:56:37;;;;;;;4.80;4.40;;;29.20;99.90;;;;;;5094796;28;20460;-60
2022/08/08 09:59:07;;;;;;;4.00;3.70;;;28.60;99.90;;;;;;5095995;28;20866;-59
2022/08/08 10:01:38;;;;;;;5.80;4.20;;;26.90;99.90;;;;;;5096039;28;20488;-59
2022/08/08 10:04:14;;;;;;;3.57;3.33;;;26.60;99.90;;;;;;5085555;28;20545;-60
2022/08/08 10:06:46;;;;;;;4.60;3.77;;;27.40;99.90;;;;;;5097063;28;20456;-60
2022/08/08 10:09:13;;;;;;;4.30;3.90;;;28.60;99.90;;;;;;5096567;28;20456;-59
2022/08/08 10:11:48;;;;;;;3.70;3.40;;;29.40;99.90;;;;;;5084860;28;20467;-59
2022/08/08 10:14:15;;;;;;;3.80;3.50;;;29.50;99.90;;;;;;5101969;28;20577;-59
2022/08/08 10:16:44;;;;;;;4.30;3.90;;;29.10;99.90;;;;;;5102936;28;20547;-59
2022/08/08 10:19:11;;;;;;;4.37;4.07;;;28.60;99.90;;;;;;5094351;28;21272;-59
2022/08/08 10:21:43;;;;;;;5.20;4.70;;;28.90;99.90;;;;;;5095030;28;20583;-60
2022/08/08 10:24:11;;;;;;;5.37;4.87;;;28.70;99.90;;;;;;5094504;28;20563;-59
2022/08/08 10:26:41;;;;;;;4.63;4.27;;;27.20;99.90;;;;;;5096348;28;20492;-57
2022/08/08 10:29:11;;;;;;;6.53;5.10;;;27.40;99.90;;;;;;5092146;28;20464;-58
2022/08/08 10:34:33;;;;;;;4.90;4.50;;;27.40;99.90;;;;;;5096115;28;20784;-59
2022/08/08 10:37:05;;;;;;;4.10;3.70;;;26.90;99.90;;;;;;5096297;28;20487;-59
2022/08/08 10:39:43;;;;;;;4.90;4.40;;;27.70;99.90;;;;;;5096862;28;20460;-59
2022/08/08 10:42:21;;;;;;;5.37;4.87;;;27.70;99.90;;;;;;5097130;28;20492;-60
2022/08/08 10:44:48;;;;;;;5.10;4.53;;;28.60;99.90;;;;;;5096806;28;20466;-59
2022/08/08 10:47:20;;;;;;;5.40;4.90;;;29.50;99.90;;;;;;5096957;28;20823;-59
2022/08/08 10:49:51;;;;;;;4.93;4.50;;;30.00;99.90;;;;;;5089793;28;20988;-59
2022/08/08 10:52:26;;;;;;;4.90;4.47;;;30.20;99.90;;;;;;5095942;28;20964;-59
2022/08/08 10:54:55;;;;;;;4.47;4.17;;;30.10;99.90;;;;;;5095223;28;20445;-59
2022/08/08 10:57:26;;;;;;;5.30;4.30;;;29.20;99.90;;;;;;5096625;28;20431;-59
2022/08/08 10:59:55;;;;;;;4.83;4.40;;;29.90;99.90;;;;;;5095865;28;20449;-59
2022/08/08 11:02:31;;;;;;;4.60;4.10;;;28.90;99.90;;;;;;5094014;28;20538;-60
2022/08/08 11:05:04;;;;;;;4.80;4.10;;;30.10;99.90;;;;;;5099201;28;20570;-59
2022/08/08 11:07:35;;;;;;;4.90;4.50;;;30.90;99.90;;;;;;5117474;28;20499;-59
2022/08/08 11:10:09;;;;;;;4.63;4.33;;;30.40;99.90;;;;;;5117165;28;20450;-60
2022/08/08 11:12:49;;;;;;;4.63;4.20;;;30.80;99.90;;;;;;5116295;28;20505;-60
2022/08/08 11:15:22;;;;;;;4.77;4.37;;;31.10;99.90;;;;;;5112305;28;20548;-60
2022/08/08 11:17:53;;;;;;;5.33;4.83;;;30.80;99.90;;;;;;5081131;28;20477;-57
2022/08/08 11:20:22;;;;;;;5.57;4.50;;;29.50;99.90;;;;;;5093110;28;20451;-59
2022/08/08 11:22:55;;;;;;;5.37;4.87;;;29.40;99.90;;;;;;5091471;28;20892;-58
2022/08/08 11:25:28;;;;;;;5.40;4.90;;;29.80;99.90;;;;;;5093310;28;20501;-59
2022/08/08 11:28:00;;;;;;;4.80;4.40;;;29.90;99.90;;;;;;5083621;28;20443;-58
2022/08/08 11:30:29;;;;;;;5.27;4.57;;;28.70;99.90;;;;;;5094452;28;20431;-59
2022/08/08 11:33:03;;;;;;;4.70;4.30;;;29.50;99.90;;;;;;5086807;28;21036;-58
2022/08/08 11:35:32;;;;;;;5.23;4.73;;;30.20;99.90;;;;;;5093693;28;20472;-59
2022/08/08 11:38:03;;;;;;;4.43;4.13;;;29.90;99.90;;;;;;5092504;28;20525;-58
2022/08/08 11:40:31;;;;;;;5.17;4.77;;;28.10;99.90;;;;;;5092196;28;20443;-58
2022/08/08 11:43:04;;;;;;;4.37;3.97;;;27.20;99.90;;;;;;5084281;28;20937;-58
2022/08/08 11:45:34;;;;;;;5.47;5.03;;;27.10;99.90;;;;;;5096804;28;20468;-58
2022/08/08 11:48:04;;;;;;;4.83;4.37;;;26.60;99.90;;;;;;5090408;28;20530;-58
2022/08/08 11:50:32;;;;;;;5.60;5.10;;;26.70;99.90;;;;;;5111551;28;20958;-58
2022/08/08 11:53:05;;;;;;;4.13;3.73;;;26.90;99.90;;;;;;5080457;28;20463;-58
2022/08/08 11:55:34;;;;;;;5.30;4.90;;;27.80;99.90;;;;;;5098127;28;20962;-58
2022/08/08 11:58:02;;;;;;;4.20;3.73;;;29.10;99.90;;;;;;5100130;28;20442;-58
2022/08/08 12:00:30;;;;;;;4.87;3.83;;;29.80;99.90;;;;;;5100303;28;20464;-58
2022/08/08 12:02:59;;;;;;;5.27;4.70;;;30.00;99.90;;;;;;5099774;28;20570;-59
2022/08/08 12:05:38;;;;;;;6.10;4.67;;;28.40;99.90;;;;;;5100487;28;20543;-59
2022/08/08 12:08:09;;;;;;;4.30;3.93;;;28.80;99.90;;;;;;5100429;28;20555;-58
2022/08/08 12:10:53;;;;;;;4.10;3.70;;;30.00;99.90;;;;;;5099946;28;20475;-59
2022/08/08 12:13:27;;;;;;;4.07;3.73;;;31.10;99.90;;;;;;5100276;28;20591;-59
2022/08/08 12:15:54;;;;;;;4.07;3.77;;;30.80;99.90;;;;;;5100396;28;20559;-59
2022/08/08 12:18:23;;;;;;;3.80;3.50;;;29.40;99.90;;;;;;5100998;28;20468;-59
2022/08/08 12:20:53;;;;;;;4.27;3.97;;;29.80;99.90;;;;;;5100672;28;20463;-58
2022/08/08 12:23:35;;;;;;;3.97;3.60;;;29.60;99.90;;;;;;5100556;28;20557;-59
2022/08/08 12:26:35;;;;;;;4.87;3.60;;;28.50;99.90;;;;;;5100140;28;20774;-57
2022/08/08 12:29:04;;;;;;;3.43;3.23;;;28.20;99.90;;;;;;5099702;28;20554;-58
2022/08/08 12:31:33;;;;;;;4.40;4.10;;;28.00;99.90;;;;;;5100434;28;20502;-58
2022/08/08 12:34:04;;;;;;;4.60;4.20;;;28.40;99.90;;;;;;5100007;28;20905;-58
2022/08/08 12:36:43;;;;;;;4.23;3.93;;;28.10;99.90;;;;;;5098666;28;20555;-57
2022/08/08 12:39:14;;;;;;;3.97;3.60;;;27.80;99.90;;;;;;5100249;28;20470;-58
2022/08/08 12:41:44;;;;;;;4.03;3.73;;;28.40;99.90;;;;;;5100119;28;20495;-55
2022/08/08 12:44:17;;;;;;;4.13;3.70;;;29.00;99.90;;;;;;5100017;28;20551;-59
2022/08/08 12:47:02;;;;;;;3.90;3.60;;;28.70;99.90;;;;;;5100346;28;20889;-56
2022/08/08 12:49:31;;;;;;;4.40;4.00;;;28.70;99.90;;;;;;5099936;28;20467;-55
2022/08/08 12:52:00;;;;;;;3.67;3.37;;;28.90;99.90;;;;;;5099145;28;20460;-58
2022/08/08 12:54:31;;;;;;;3.70;3.47;;;28.90;99.90;;;;;;5096984;28;20458;-58
2022/08/08 12:56:59;;;;;;;4.13;3.73;;;29.40;99.90;;;;;;5090784;28;20808;-58
2022/08/08 12:59:29;;;;;;;4.57;4.17;;;29.70;99.90;;;;;;5103755;28;20464;-58
2022/08/08 13:02:04;;;;;;;4.50;4.10;;;29.50;99.90;;;;;;5119553;28;20516;-56
2022/08/08 13:04:32;;;;;;;3.93;3.63;;;28.10;99.90;;;;;;5111770;28;20479;-56
2022/08/08 13:07:03;;;;;;;8.43;3.57;;;27.90;99.90;;;;;;5119069;28;20463;-57
2022/08/08 13:09:37;;;;;;;3.97;3.67;;;28.50;99.90;;;;;;5115557;28;20844;-58
2022/08/08 13:12:18;;;;;;;5.20;3.60;;;29.60;99.90;;;;;;5119196;27;20757;-56
2022/08/08 13:14:52;;;;;;;4.03;3.70;;;29.30;99.90;;;;;;5103946;28;20917;-58
2022/08/08 13:17:24;;;;;;;4.67;3.53;;;28.40;99.90;;;;;;5118952;28;20471;-57
2022/08/08 13:20:04;;;;;;;4.83;4.33;;;29.50;99.90;;;;;;5100943;28;20460;-58
2022/08/08 13:22:42;;;;;;;4.53;4.23;;;29.60;99.90;;;;;;5099272;28;20492;-58
2022/08/08 13:25:13;;;;;;;4.47;4.10;;;28.90;99.90;;;;;;5093633;28;20533;-58
2022/08/08 13:27:51;;;;;;;4.00;3.70;;;28.50;99.90;;;;;;5101364;28;20887;-58
2022/08/08 13:30:27;;;;;;;4.70;4.30;;;28.70;99.90;;;;;;5090539;28;20464;-55
2022/08/08 13:32:57;;;;;;;4.50;4.20;;;29.30;99.90;;;;;;5095021;28;20534;-55
2022/08/08 13:35:33;;;;;;;3.90;3.60;;;29.50;99.90;;;;;;5096155;28;20780;-58
2022/08/08 13:38:10;;;;;;;4.90;4.40;;;28.60;99.90;;;;;;5096266;28;20452;-58
2022/08/08 13:40:39;;;;;;;4.80;4.50;;;28.50;99.90;;;;;;5094279;28;20460;-58
2022/08/08 13:43:07;;;;;;;3.83;3.43;;;29.60;99.90;;;;;;5097309;28;20477;-57